sensor_id;sensor_type;location;lat;lon;timestamp;temperature;humidity
52435;DHT22;38354;52.892;6.148;2023-02-28T04:01:07;3.60;99.90
52435;DHT22;38354;52.892;6.148;2023-02-28T04:03:37;3.60;99.90
52435;DHT22;38354;52.892;6.148;2023-02-28T04:06:04;3.60;99.90
52435;DHT22;38354;52.892;6.148;2023-02-28T04:08:31;3.50;99.90
52435;DHT22;38354;52.892;6.148;2023-02-28T04:13:47;3.50;99.90
52435;DHT22;38354;52.892;6.148;2023-02-28T04:16:13;3.50;99.90
52435;DHT22;38354;52.892;6.148;2023-02-28T04:18:39;3.50;99.90
52435;DHT22;38354;52.892;6.148;2023-02-28T04:21:06;3.50;99.90
52435;DHT22;38354;52.892;6.148;2023-02-28T04:23:31;3.50;99.90
52435;DHT22;38354;52.892;6.148;2023-02-28T04:25:57;3.50;99.90
52435;DHT22;38354;52.892;6.148;2023-02-28T04:28:23;3.50;99.90
52435;DHT22;38354;52.892;6.148;2023-02-28T04:30:57;3.50;99.90
52435;DHT22;38354;52.892;6.148;2023-02-28T04:33:24;3.50;99.90
52435;DHT22;38354;52.892;6.148;2023-02-28T04:36:07;3.40;99.90
52435;DHT22;38354;52.892;6.148;2023-02-28T04:38:35;3.40;99.90
52435;DHT22;38354;52.892;6.148;2023-02-28T04:41:02;3.30;99.90
52435;DHT22;38354;52.892;6.148;2023-02-28T04:43:28;3.30;99.90
52435;DHT22;38354;52.892;6.148;2023-02-28T04:45:55;3.20;99.90
52435;DHT22;38354;52.892;6.148;2023-02-28T04:48:25;3.20;99.90
52435;DHT22;38354;52.892;6.148;2023-02-28T04:50:51;3.10;99.90
52435;DHT22;38354;52.892;6.148;2023-02-28T04:53:18;3.10;99.90
52435;DHT22;38354;52.892;6.148;2023-02-28T04:55:43;3.10;99.90
52435;DHT22;38354;52.892;6.148;2023-02-28T04:58:09;3.00;99.90
52435;DHT22;38354;52.892;6.148;2023-02-28T05:00:35;3.00;99.90
52435;DHT22;38354;52.892;6.148;2023-02-28T05:03:01;3.00;99.90
52435;DHT22;38354;52.892;6.148;2023-02-28T05:05:26;3.00;99.90
52435;DHT22;38354;52.892;6.148;2023-02-28T05:07:52;3.00;99.90
52435;DHT22;38354;52.892;6.148;2023-02-28T05:10:19;2.90;99.90
52435;DHT22;38354;52.892;6.148;2023-02-28T05:12:45;2.80;99.90
52435;DHT22;38354;52.892;6.148;2023-02-28T05:15:13;2.80;99.90
52435;DHT22;38354;52.892;6.148;2023-02-28T05:17:39;2.80;99.90
52435;DHT22;38354;52.892;6.148;2023-02-28T05:20:06;2.80;99.90
52435;DHT22;38354;52.892;6.148;2023-02-28T05:22:32;2.80;99.90
52435;DHT22;38354;52.892;6.148;2023-02-28T05:24:58;2.80;99.90
52435;DHT22;38354;52.892;6.148;2023-02-28T05:27:23;2.80;99.90
52435;DHT22;38354;52.892;6.148;2023-02-28T05:29:49;2.70;99.90
52435;DHT22;38354;52.892;6.148;2023-02-28T05:32:15;2.70;99.90
52435;DHT22;38354;52.892;6.148;2023-02-28T05:34:41;2.60;99.90
52435;DHT22;38354;52.892;6.148;2023-02-28T05:37:11;2.60;99.90
52435;DHT22;38354;52.892;6.148;2023-02-28T05:39:37;2.60;99.90
52435;DHT22;38354;52.892;6.148;2023-02-28T05:42:03;2.50;99.90
52435;DHT22;38354;52.892;6.148;2023-02-28T05:44:28;2.50;99.90
52435;DHT22;38354;52.892;6.148;2023-02-28T05:46:54;2.50;99.90
52435;DHT22;38354;52.892;6.148;2023-02-28T05:49:20;2.40;99.90
52435;DHT22;38354;52.892;6.148;2023-02-28T05:51:45;2.40;99.90
52435;DHT22;38354;52.892;6.148;2023-02-28T05:54:11;2.40;99.90
52435;DHT22;38354;52.892;6.148;2023-02-28T05:56:37;2.40;99.90
52435;DHT22;38354;52.892;6.148;2023-02-28T05:59:05;2.40;99.90
52435;DHT22;38354;52.892;6.148;2023-02-28T06:01:36;2.40;99.90
52435;DHT22;38354;52.892;6.148;2023-02-28T06:04:04;2.40;99.90
52435;DHT22;38354;52.892;6.148;2023-02-28T06:06:30;2.40;99.90
52435;DHT22;38354;52.892;6.148;2023-02-28T06:08:56;2.40;99.90
52435;DHT22;38354;52.892;6.148;2023-02-28T06:11:22;2.40;99.90
52435;DHT22;38354;52.892;6.148;2023-02-28T06:13:54;2.40;99.90
52435;DHT22;38354;52.892;6.148;2023-02-28T06:16:20;2.40;99.90
52435;DHT22;38354;52.892;6.148;2023-02-28T06:18:46;2.40;99.90
52435;DHT22;38354;52.892;6.148;2023-02-28T06:21:12;2.40;99.90
52435;DHT22;38354;52.892;6.148;2023-02-28T06:23:38;2.40;99.90
52435;DHT22;38354;52.892;6.148;2023-02-28T06:26:04;2.40;99.90
52435;DHT22;38354;52.892;6.148;2023-02-28T06:28:31;2.30;99.90
52435;DHT22;38354;52.892;6.148;2023-02-28T06:30:57;2.30;99.90
52435;DHT22;38354;52.892;6.148;2023-02-28T06:33:23;2.30;99.90
52435;DHT22;38354;52.892;6.148;2023-02-28T06:35:51;2.30;99.90
52435;DHT22;38354;52.892;6.148;2023-02-28T06:38:18;2.30;99.90
52435;DHT22;38354;52.892;6.148;2023-02-28T06:40:44;2.30;99.90
52435;DHT22;38354;52.892;6.148;2023-02-28T06:43:10;2.30;99.90
52435;DHT22;38354;52.892;6.148;2023-02-28T06:45:43;2.30;99.90
52435;DHT22;38354;52.892;6.148;2023-02-28T06:48:09;2.30;99.90
52435;DHT22;38354;52.892;6.148;2023-02-28T06:50:36;2.30;99.90
52435;DHT22;38354;52.892;6.148;2023-02-28T06:53:02;2.30;99.90
52435;DHT22;38354;52.892;6.148;2023-02-28T06:55:28;2.20;99.90
52435;DHT22;38354;52.892;6.148;2023-02-28T06:57:53;2.20;99.90
52435;DHT22;38354;52.892;6.148;2023-02-28T07:00:20;2.20;99.90
52435;DHT22;38354;52.892;6.148;2023-02-28T07:02:46;2.20;99.90
52435;DHT22;38354;52.892;6.148;2023-02-28T07:05:12;2.10;99.90
52435;DHT22;38354;52.892;6.148;2023-02-28T07:07:38;2.10;99.90
52435;DHT22;38354;52.892;6.148;2023-02-28T07:10:06;2.10;99.90
52435;DHT22;38354;52.892;6.148;2023-02-28T07:12:32;2.20;99.90
52435;DHT22;38354;52.892;6.148;2023-02-28T07:14:57;2.10;99.90
52435;DHT22;38354;52.892;6.148;2023-02-28T07:17:23;2.10;99.90
52435;DHT22;38354;52.892;6.148;2023-02-28T07:19:49;2.20;99.90
52435;DHT22;38354;52.892;6.148;2023-02-28T07:22:14;2.20;99.90
52435;DHT22;38354;52.892;6.148;2023-02-28T07:24:40;2.20;99.90
52435;DHT22;38354;52.892;6.148;2023-02-28T07:27:06;2.20;99.90
52435;DHT22;38354;52.892;6.148;2023-02-28T07:29:31;2.20;99.90
52435;DHT22;38354;52.892;6.148;2023-02-28T07:31:57;2.20;99.90
52435;DHT22;38354;52.892;6.148;2023-02-28T07:34:23;2.30;99.90
52435;DHT22;38354;52.892;6.148;2023-02-28T07:36:49;2.30;99.90
52435;DHT22;38354;52.892;6.148;2023-02-28T07:39:18;2.30;99.90
52435;DHT22;38354;52.892;6.148;2023-02-28T07:41:44;2.30;99.90
52435;DHT22;38354;52.892;6.148;2023-02-28T07:44:11;2.40;99.90
52435;DHT22;38354;52.892;6.148;2023-02-28T07:46:37;2.30;99.90
52435;DHT22;38354;52.892;6.148;2023-02-28T07:49:04;2.40;99.90
52435;DHT22;38354;52.892;6.148;2023-02-28T07:51:30;2.30;99.90
52435;DHT22;38354;52.892;6.148;2023-02-28T07:53:56;2.40;99.90
52435;DHT22;38354;52.892;6.148;2023-02-28T07:56:22;2.40;99.90
52435;DHT22;38354;52.892;6.148;2023-02-28T07:58:48;2.40;99.90
52435;DHT22;38354;52.892;6.148;2023-02-28T08:01:14;2.40;99.90
52435;DHT22;38354;52.892;6.148;2023-02-28T08:03:40;2.40;99.90
52435;DHT22;38354;52.892;6.148;2023-02-28T08:06:08;2.50;99.90
52435;DHT22;38354;52.892;6.148;2023-02-28T08:08:34;2.50;99.90
52435;DHT22;38354;52.892;6.148;2023-02-28T08:11:01;2.50;99.90
52435;DHT22;38354;52.892;6.148;2023-02-28T08:13:29;2.50;99.90
52435;DHT22;38354;52.892;6.148;2023-02-28T08:15:55;2.60;99.90
52435;DHT22;38354;52.892;6.148;2023-02-28T08:18:22;2.70;99.90
52435;DHT22;38354;52.892;6.148;2023-02-28T08:20:48;2.70;99.90
52435;DHT22;38354;52.892;6.148;2023-02-28T08:23:14;2.70;99.90
52435;DHT22;38354;52.892;6.148;2023-02-28T08:25:39;2.70;99.90
52435;DHT22;38354;52.892;6.148;2023-02-28T08:28:05;2.80;99.90
52435;DHT22;38354;52.892;6.148;2023-02-28T08:30:31;2.80;99.90
52435;DHT22;38354;52.892;6.148;2023-02-28T08:32:56;2.80;99.90
52435;DHT22;38354;52.892;6.148;2023-02-28T08:35:23;2.90;99.90
52435;DHT22;38354;52.892;6.148;2023-02-28T08:37:49;2.90;99.90
52435;DHT22;38354;52.892;6.148;2023-02-28T08:40:15;3.00;99.90
52435;DHT22;38354;52.892;6.148;2023-02-28T08:42:44;3.00;99.90
52435;DHT22;38354;52.892;6.148;2023-02-28T08:45:11;3.00;99.90
52435;DHT22;38354;52.892;6.148;2023-02-28T08:47:37;3.10;99.90
52435;DHT22;38354;52.892;6.148;2023-02-28T08:50:03;3.10;99.90
52435;DHT22;38354;52.892;6.148;2023-02-28T08:52:28;3.20;99.90
52435;DHT22;38354;52.892;6.148;2023-02-28T08:54:54;3.30;99.90
52435;DHT22;38354;52.892;6.148;2023-02-28T08:57:20;3.40;99.90
52435;DHT22;38354;52.892;6.148;2023-02-28T08:59:45;3.40;99.90
52435;DHT22;38354;52.892;6.148;2023-02-28T09:02:13;3.50;99.90
52435;DHT22;38354;52.892;6.148;2023-02-28T09:04:40;3.50;99.90
52435;DHT22;38354;52.892;6.148;2023-02-28T09:07:05;3.50;99.90
52435;DHT22;38354;52.892;6.148;2023-02-28T09:09:31;3.60;99.90
52435;DHT22;38354;52.892;6.148;2023-02-28T09:11:57;3.60;99.90
52435;DHT22;38354;52.892;6.148;2023-02-28T09:14:23;3.60;99.90
52435;DHT22;38354;52.892;6.148;2023-02-28T09:16:49;3.70;99.90
52435;DHT22;38354;52.892;6.148;2023-02-28T09:19:15;3.70;99.90
52435;DHT22;38354;52.892;6.148;2023-02-28T09:21:40;3.80;99.90
52435;DHT22;38354;52.892;6.148;2023-02-28T09:24:06;3.80;99.90
52435;DHT22;38354;52.892;6.148;2023-02-28T09:26:32;4.00;99.90
52435;DHT22;38354;52.892;6.148;2023-02-28T09:28:59;4.10;99.90
52435;DHT22;38354;52.892;6.148;2023-02-28T09:31:27;4.30;99.90
52435;DHT22;38354;52.892;6.148;2023-02-28T09:33:55;4.70;99.90
52435;DHT22;38354;52.892;6.148;2023-02-28T09:36:22;5.20;99.90
52435;DHT22;38354;52.892;6.148;2023-02-28T09:38:49;5.40;99.90
52435;DHT22;38354;52.892;6.148;2023-02-28T09:41:21;5.40;99.90
52435;DHT22;38354;52.892;6.148;2023-02-28T09:43:50;5.40;99.90
52435;DHT22;38354;52.892;6.148;2023-02-28T09:46:28;5.40;99.90
52435;DHT22;38354;52.892;6.148;2023-02-28T09:48:56;5.30;99.90
52435;DHT22;38354;52.892;6.148;2023-02-28T09:51:50;5.50;99.90
52435;DHT22;38354;52.892;6.148;2023-02-28T09:54:21;5.60;99.90
52435;DHT22;38354;52.892;6.148;2023-02-28T09:59:31;5.70;99.90
52435;DHT22;38354;52.892;6.148;2023-02-28T10:09:58;6.00;99.90
52435;DHT22;38354;52.892;6.148;2023-02-28T10:12:28;6.00;99.90
52435;DHT22;38354;52.892;6.148;2023-02-28T10:14:55;6.10;99.90
52435;DHT22;38354;52.892;6.148;2023-02-28T10:17:36;6.20;99.90
52435;DHT22;38354;52.892;6.148;2023-02-28T10:20:11;6.30;99.90
52435;DHT22;38354;52.892;6.148;2023-02-28T10:25:27;6.40;99.90
52435;DHT22;38354;52.892;6.148;2023-02-28T10:27:54;6.40;99.90
52435;DHT22;38354;52.892;6.148;2023-02-28T10:30:24;6.50;99.90
52435;DHT22;38354;52.892;6.148;2023-02-28T10:32:52;6.50;99.90
52435;DHT22;38354;52.892;6.148;2023-02-28T10:35:25;6.60;99.90
52435;DHT22;38354;52.892;6.148;2023-02-28T10:37:57;6.80;99.90
52435;DHT22;38354;52.892;6.148;2023-02-28T10:43:04;7.00;99.90
52435;DHT22;38354;52.892;6.148;2023-02-28T10:45:32;7.10;99.90
52435;DHT22;38354;52.892;6.148;2023-02-28T10:48:03;7.00;99.90
52435;DHT22;38354;52.892;6.148;2023-02-28T10:56:03;7.10;99.90
52435;DHT22;38354;52.892;6.148;2023-02-28T11:01:15;7.20;99.90
52435;DHT22;38354;52.892;6.148;2023-02-28T11:03:41;7.30;99.90
52435;DHT22;38354;52.892;6.148;2023-02-28T11:06:13;7.40;99.90
52435;DHT22;38354;52.892;6.148;2023-02-28T11:08:52;7.50;99.90
52435;DHT22;38354;52.892;6.148;2023-02-28T11:11:19;7.70;99.90
52435;DHT22;38354;52.892;6.148;2023-02-28T11:13:46;7.80;99.90
52435;DHT22;38354;52.892;6.148;2023-02-28T11:16:14;8.00;99.90
52435;DHT22;38354;52.892;6.148;2023-02-28T11:18:44;8.10;99.90
52435;DHT22;38354;52.892;6.148;2023-02-28T11:21:36;8.20;99.90
52435;DHT22;38354;52.892;6.148;2023-02-28T11:26:45;8.50;99.90
52435;DHT22;38354;52.892;6.148;2023-02-28T11:29:19;8.50;99.90
52435;DHT22;38354;52.892;6.148;2023-02-28T11:34:28;8.80;99.90
52435;DHT22;38354;52.892;6.148;2023-02-28T11:36:58;8.90;99.90
52435;DHT22;38354;52.892;6.148;2023-02-28T11:39:25;9.00;99.90
52435;DHT22;38354;52.892;6.148;2023-02-28T11:47:42;9.20;99.90
52435;DHT22;38354;52.892;6.148;2023-02-28T11:50:21;9.30;99.90
52435;DHT22;38354;52.892;6.148;2023-02-28T11:53:00;9.60;99.90
52435;DHT22;38354;52.892;6.148;2023-02-28T11:55:35;9.80;99.90
52435;DHT22;38354;52.892;6.148;2023-02-28T12:06:38;10.10;99.90
52435;DHT22;38354;52.892;6.148;2023-02-28T12:20:26;10.60;99.90
52435;DHT22;38354;52.892;6.148;2023-02-28T12:28:34;10.60;99.90
52435;DHT22;38354;52.892;6.148;2023-02-28T12:31:09;10.20;99.90
52435;DHT22;38354;52.892;6.148;2023-02-28T12:33:37;9.80;99.90
52435;DHT22;38354;52.892;6.148;2023-02-28T12:36:09;9.40;99.90
52435;DHT22;38354;52.892;6.148;2023-02-28T12:38:48;9.10;99.90
52435;DHT22;38354;52.892;6.148;2023-02-28T12:41:26;9.10;99.90
52435;DHT22;38354;52.892;6.148;2023-02-28T12:44:00;9.30;99.90
52435;DHT22;38354;52.892;6.148;2023-02-28T12:46:36;9.50;99.90
52435;DHT22;38354;52.892;6.148;2023-02-28T12:49:08;9.60;99.90
52435;DHT22;38354;52.892;6.148;2023-02-28T12:51:35;9.80;99.90
52435;DHT22;38354;52.892;6.148;2023-02-28T12:54:19;9.80;99.90
52435;DHT22;38354;52.892;6.148;2023-02-28T12:57:14;10.00;99.90
52435;DHT22;38354;52.892;6.148;2023-02-28T12:59:48;10.40;99.90
52435;DHT22;38354;52.892;6.148;2023-02-28T13:10:18;11.00;99.90
52435;DHT22;38354;52.892;6.148;2023-02-28T13:12:52;10.70;99.90
52435;DHT22;38354;52.892;6.148;2023-02-28T13:15:23;10.90;99.90
52435;DHT22;38354;52.892;6.148;2023-02-28T13:17:55;11.30;99.90
52435;DHT22;38354;52.892;6.148;2023-02-28T13:20:24;11.50;99.90
52435;DHT22;38354;52.892;6.148;2023-02-28T13:22:52;11.80;99.90
52435;DHT22;38354;52.892;6.148;2023-02-28T13:27:48;11.90;99.90
52435;DHT22;38354;52.892;6.148;2023-02-28T13:36:22;11.50;99.90
52435;DHT22;38354;52.892;6.148;2023-02-28T13:39:02;11.30;99.90
52435;DHT22;38354;52.892;6.148;2023-02-28T14:03:05;11.30;99.90
52435;DHT22;38354;52.892;6.148;2023-02-28T14:05:33;11.60;99.90
52435;DHT22;38354;52.892;6.148;2023-02-28T14:08:19;11.90;99.90
52435;DHT22;38354;52.892;6.148;2023-02-28T14:10:49;12.10;99.90
52435;DHT22;38354;52.892;6.148;2023-02-28T14:16:06;11.70;99.90
52435;DHT22;38354;52.892;6.148;2023-02-28T14:18:37;11.20;99.90
52435;DHT22;38354;52.892;6.148;2023-02-28T14:21:24;10.90;99.90
52435;DHT22;38354;52.892;6.148;2023-02-28T14:24:20;10.50;99.90
52435;DHT22;38354;52.892;6.148;2023-02-28T14:32:35;9.80;99.90
52435;DHT22;38354;52.892;6.148;2023-02-28T14:37:51;10.20;99.90
52435;DHT22;38354;52.892;6.148;2023-02-28T14:40:21;10.50;99.90
52435;DHT22;38354;52.892;6.148;2023-02-28T14:42:56;10.50;99.90
52435;DHT22;38354;52.892;6.148;2023-02-28T14:45:23;10.40;99.90
52435;DHT22;38354;52.892;6.148;2023-02-28T14:47:50;10.40;99.90
52435;DHT22;38354;52.892;6.148;2023-02-28T14:50:34;10.50;99.90
52435;DHT22;38354;52.892;6.148;2023-02-28T14:53:01;10.80;99.90
52435;DHT22;38354;52.892;6.148;2023-02-28T14:55:36;10.90;99.90
52435;DHT22;38354;52.892;6.148;2023-02-28T14:58:06;11.10;99.90
52435;DHT22;38354;52.892;6.148;2023-02-28T15:00:34;11.30;99.90
52435;DHT22;38354;52.892;6.148;2023-02-28T15:03:21;11.40;99.90
52435;DHT22;38354;52.892;6.148;2023-02-28T15:05:59;11.50;99.90
52435;DHT22;38354;52.892;6.148;2023-02-28T15:08:25;11.70;99.90
52435;DHT22;38354;52.892;6.148;2023-02-28T15:10:57;11.70;99.90
52435;DHT22;38354;52.892;6.148;2023-02-28T15:13:35;11.80;99.90
52435;DHT22;38354;52.892;6.148;2023-02-28T15:16:03;11.80;99.90
52435;DHT22;38354;52.892;6.148;2023-02-28T15:18:31;11.80;99.90
52435;DHT22;38354;52.892;6.148;2023-02-28T15:21:38;11.90;99.90
52435;DHT22;38354;52.892;6.148;2023-02-28T15:24:05;11.90;99.90
52435;DHT22;38354;52.892;6.148;2023-02-28T15:26:44;12.00;99.90
52435;DHT22;38354;52.892;6.148;2023-02-28T15:29:20;11.90;99.90
52435;DHT22;38354;52.892;6.148;2023-02-28T15:31:50;11.90;99.90
52435;DHT22;38354;52.892;6.148;2023-02-28T15:34:43;12.10;99.90
52435;DHT22;38354;52.892;6.148;2023-02-28T15:39:52;12.50;99.90
52435;DHT22;38354;52.892;6.148;2023-02-28T15:42:21;12.50;99.90
52435;DHT22;38354;52.892;6.148;2023-02-28T15:44:47;12.70;99.90
52435;DHT22;38354;52.892;6.148;2023-02-28T15:47:24;12.70;99.90
52435;DHT22;38354;52.892;6.148;2023-02-28T15:50:12;12.60;99.90
52435;DHT22;38354;52.892;6.148;2023-02-28T15:52:41;12.50;99.90
52435;DHT22;38354;52.892;6.148;2023-02-28T15:55:28;12.40;99.90
52435;DHT22;38354;52.892;6.148;2023-02-28T15:57:55;12.30;99.90
52435;DHT22;38354;52.892;6.148;2023-02-28T16:00:25;12.10;99.90
52435;DHT22;38354;52.892;6.148;2023-02-28T16:02:51;11.90;99.90
52435;DHT22;38354;52.892;6.148;2023-02-28T16:05:23;11.90;99.90
52435;DHT22;38354;52.892;6.148;2023-02-28T16:08:15;11.90;99.90
52435;DHT22;38354;52.892;6.148;2023-02-28T16:10:41;12.10;99.90
52435;DHT22;38354;52.892;6.148;2023-02-28T16:13:10;12.10;99.90
52435;DHT22;38354;52.892;6.148;2023-02-28T16:15:41;12.10;99.90
52435;DHT22;38354;52.892;6.148;2023-02-28T16:18:11;12.10;99.90
52435;DHT22;38354;52.892;6.148;2023-02-28T16:20:37;12.00;99.90
52435;DHT22;38354;52.892;6.148;2023-02-28T16:23:03;11.70;99.90
52435;DHT22;38354;52.892;6.148;2023-02-28T16:27:59;11.40;99.90
52435;DHT22;38354;52.892;6.148;2023-02-28T16:30:27;11.10;99.90
52435;DHT22;38354;52.892;6.148;2023-02-28T16:32:55;10.90;99.90
52435;DHT22;38354;52.892;6.148;2023-02-28T16:35:21;10.60;99.90
52435;DHT22;38354;52.892;6.148;2023-02-28T16:37:47;10.30;99.90
52435;DHT22;38354;52.892;6.148;2023-02-28T16:40:19;10.00;99.90
52435;DHT22;38354;52.892;6.148;2023-02-28T16:42:47;9.80;99.90
52435;DHT22;38354;52.892;6.148;2023-02-28T16:45:16;9.50;99.90
52435;DHT22;38354;52.892;6.148;2023-02-28T16:47:44;9.20;99.90
52435;DHT22;38354;52.892;6.148;2023-02-28T16:50:22;9.00;99.90
52435;DHT22;38354;52.892;6.148;2023-02-28T16:52:48;8.80;99.90
52435;DHT22;38354;52.892;6.148;2023-02-28T16:55:15;8.70;99.90
52435;DHT22;38354;52.892;6.148;2023-02-28T16:57:42;8.50;99.90
52435;DHT22;38354;52.892;6.148;2023-02-28T17:00:12;8.30;99.90
52435;DHT22;38354;52.892;6.148;2023-02-28T17:02:38;8.20;99.90
52435;DHT22;38354;52.892;6.148;2023-02-28T17:05:04;8.10;99.90
52435;DHT22;38354;52.892;6.148;2023-02-28T17:07:31;7.90;99.90
52435;DHT22;38354;52.892;6.148;2023-02-28T17:09:57;7.80;99.90
52435;DHT22;38354;52.892;6.148;2023-02-28T17:12:23;7.70;99.90
52435;DHT22;38354;52.892;6.148;2023-02-28T17:14:48;7.60;99.90
52435;DHT22;38354;52.892;6.148;2023-02-28T17:17:19;7.50;99.90
52435;DHT22;38354;52.892;6.148;2023-02-28T17:19:46;7.40;99.90
52435;DHT22;38354;52.892;6.148;2023-02-28T17:22:12;7.20;99.90
52435;DHT22;38354;52.892;6.148;2023-02-28T17:24:38;7.10;99.90
52435;DHT22;38354;52.892;6.148;2023-02-28T17:27:05;7.00;99.90
52435;DHT22;38354;52.892;6.148;2023-02-28T17:29:33;6.90;99.90
52435;DHT22;38354;52.892;6.148;2023-02-28T17:31:59;6.80;99.90
52435;DHT22;38354;52.892;6.148;2023-02-28T17:34:24;6.70;99.90
52435;DHT22;38354;52.892;6.148;2023-02-28T17:36:51;6.70;99.90
52435;DHT22;38354;52.892;6.148;2023-02-28T17:39:18;6.60;99.90
52435;DHT22;38354;52.892;6.148;2023-02-28T17:41:55;6.50;99.90
52435;DHT22;38354;52.892;6.148;2023-02-28T17:44:22;6.40;99.90
52435;DHT22;38354;52.892;6.148;2023-02-28T17:46:49;6.30;99.90
52435;DHT22;38354;52.892;6.148;2023-02-28T17:49:17;6.30;99.90
52435;DHT22;38354;52.892;6.148;2023-02-28T17:51:43;6.20;99.90
52435;DHT22;38354;52.892;6.148;2023-02-28T17:54:09;6.10;99.90
52435;DHT22;38354;52.892;6.148;2023-02-28T17:56:35;6.00;99.90
52435;DHT22;38354;52.892;6.148;2023-02-28T17:59:01;5.90;99.90
52435;DHT22;38354;52.892;6.148;2023-02-28T18:01:26;5.80;99.90
52435;DHT22;38354;52.892;6.148;2023-02-28T18:03:53;5.80;99.90
52435;DHT22;38354;52.892;6.148;2023-02-28T18:08:49;5.70;99.90
52435;DHT22;38354;52.892;6.148;2023-02-28T18:11:18;5.70;99.90
52435;DHT22;38354;52.892;6.148;2023-02-28T18:13:45;5.70;99.90
52435;DHT22;38354;52.892;6.148;2023-02-28T18:16:11;5.60;99.90
52435;DHT22;38354;52.892;6.148;2023-02-28T18:18:37;5.50;99.90
52435;DHT22;38354;52.892;6.148;2023-02-28T18:21:07;5.50;99.90
52435;DHT22;38354;52.892;6.148;2023-02-28T18:23:34;5.40;99.90
52435;DHT22;38354;52.892;6.148;2023-02-28T18:26:00;5.40;99.90
52435;DHT22;38354;52.892;6.148;2023-02-28T18:28:25;5.30;99.90
52435;DHT22;38354;52.892;6.148;2023-02-28T18:30:51;5.30;99.90
52435;DHT22;38354;52.892;6.148;2023-02-28T18:33:17;5.20;99.90
52435;DHT22;38354;52.892;6.148;2023-02-28T18:35:44;5.20;99.90
52435;DHT22;38354;52.892;6.148;2023-02-28T18:38:13;5.10;99.90
52435;DHT22;38354;52.892;6.148;2023-02-28T18:40:40;5.00;99.90
52435;DHT22;38354;52.892;6.148;2023-02-28T18:43:07;4.90;99.90
52435;DHT22;38354;52.892;6.148;2023-02-28T18:45:37;4.90;99.90
52435;DHT22;38354;52.892;6.148;2023-02-28T18:48:03;4.90;99.90
52435;DHT22;38354;52.892;6.148;2023-02-28T18:50:29;4.80;99.90
52435;DHT22;38354;52.892;6.148;2023-02-28T18:52:54;4.80;99.90
52435;DHT22;38354;52.892;6.148;2023-02-28T18:55:22;4.70;99.90
52435;DHT22;38354;52.892;6.148;2023-02-28T18:57:48;4.60;99.90
52435;DHT22;38354;52.892;6.148;2023-02-28T19:00:15;4.50;99.90
52435;DHT22;38354;52.892;6.148;2023-02-28T19:02:44;4.40;99.90
52435;DHT22;38354;52.892;6.148;2023-02-28T19:05:10;4.20;99.90
52435;DHT22;38354;52.892;6.148;2023-02-28T19:07:37;4.20;99.90
52435;DHT22;38354;52.892;6.148;2023-02-28T19:10:03;4.10;99.90
52435;DHT22;38354;52.892;6.148;2023-02-28T19:12:35;4.00;99.90
52435;DHT22;38354;52.892;6.148;2023-02-28T19:15:03;3.90;99.90
52435;DHT22;38354;52.892;6.148;2023-02-28T19:17:28;3.80;99.90
52435;DHT22;38354;52.892;6.148;2023-02-28T19:19:54;3.80;99.90
52435;DHT22;38354;52.892;6.148;2023-02-28T19:22:20;3.70;99.90
52435;DHT22;38354;52.892;6.148;2023-02-28T19:24:45;3.70;99.90
52435;DHT22;38354;52.892;6.148;2023-02-28T19:27:11;3.60;99.90
52435;DHT22;38354;52.892;6.148;2023-02-28T19:29:37;3.60;99.90
52435;DHT22;38354;52.892;6.148;2023-02-28T19:32:02;3.60;99.90
52435;DHT22;38354;52.892;6.148;2023-02-28T19:34:29;3.50;99.90
52435;DHT22;38354;52.892;6.148;2023-02-28T19:36:55;3.50;99.90
52435;DHT22;38354;52.892;6.148;2023-02-28T19:39:21;3.50;99.90
52435;DHT22;38354;52.892;6.148;2023-02-28T19:41:47;3.50;99.90
52435;DHT22;38354;52.892;6.148;2023-02-28T19:44:12;3.50;99.90
52435;DHT22;38354;52.892;6.148;2023-02-28T19:46:38;3.50;99.90
52435;DHT22;38354;52.892;6.148;2023-02-28T19:49:03;3.50;99.90
52435;DHT22;38354;52.892;6.148;2023-02-28T19:51:29;3.50;99.90
52435;DHT22;38354;52.892;6.148;2023-02-28T19:53:55;3.50;99.90
52435;DHT22;38354;52.892;6.148;2023-02-28T19:56:20;3.50;99.90
52435;DHT22;38354;52.892;6.148;2023-02-28T19:58:46;3.40;99.90
52435;DHT22;38354;52.892;6.148;2023-02-28T20:01:14;3.40;99.90
52435;DHT22;38354;52.892;6.148;2023-02-28T20:03:40;3.30;99.90
52435;DHT22;38354;52.892;6.148;2023-02-28T20:06:10;3.20;99.90
52435;DHT22;38354;52.892;6.148;2023-02-28T20:08:38;3.20;99.90
52435;DHT22;38354;52.892;6.148;2023-02-28T20:11:12;3.10;99.90
52435;DHT22;38354;52.892;6.148;2023-02-28T20:13:39;3.10;99.90
52435;DHT22;38354;52.892;6.148;2023-02-28T20:16:07;3.10;99.90
52435;DHT22;38354;52.892;6.148;2023-02-28T20:18:34;3.00;99.90
52435;DHT22;38354;52.892;6.148;2023-02-28T20:21:00;2.90;99.90
52435;DHT22;38354;52.892;6.148;2023-02-28T20:23:29;2.90;99.90
52435;DHT22;38354;52.892;6.148;2023-02-28T20:25:58;2.80;99.90
52435;DHT22;38354;52.892;6.148;2023-02-28T20:28:24;2.80;99.90
52435;DHT22;38354;52.892;6.148;2023-02-28T20:30:49;2.80;99.90
52435;DHT22;38354;52.892;6.148;2023-02-28T20:33:17;2.80;99.90
52435;DHT22;38354;52.892;6.148;2023-02-28T20:35:42;2.70;99.90
52435;DHT22;38354;52.892;6.148;2023-02-28T20:38:09;2.70;99.90
52435;DHT22;38354;52.892;6.148;2023-02-28T20:40:34;2.60;99.90
52435;DHT22;38354;52.892;6.148;2023-02-28T20:43:00;2.70;99.90
52435;DHT22;38354;52.892;6.148;2023-02-28T20:45:27;2.60;99.90
52435;DHT22;38354;52.892;6.148;2023-02-28T20:47:52;2.60;99.90
52435;DHT22;38354;52.892;6.148;2023-02-28T20:50:18;2.60;99.90
52435;DHT22;38354;52.892;6.148;2023-02-28T20:52:44;2.60;99.90
52435;DHT22;38354;52.892;6.148;2023-02-28T20:55:11;2.60;99.90
52435;DHT22;38354;52.892;6.148;2023-02-28T20:57:37;2.60;99.90
52435;DHT22;38354;52.892;6.148;2023-02-28T21:00:05;2.60;99.90
52435;DHT22;38354;52.892;6.148;2023-02-28T21:02:35;2.60;99.90
52435;DHT22;38354;52.892;6.148;2023-02-28T21:05:01;2.60;99.90
52435;DHT22;38354;52.892;6.148;2023-02-28T21:07:28;2.60;99.90
52435;DHT22;38354;52.892;6.148;2023-02-28T21:09:54;2.50;99.90
52435;DHT22;38354;52.892;6.148;2023-02-28T21:12:20;2.40;99.90
52435;DHT22;38354;52.892;6.148;2023-02-28T21:14:46;2.40;99.90
52435;DHT22;38354;52.892;6.148;2023-02-28T21:17:11;2.30;99.90
52435;DHT22;38354;52.892;6.148;2023-02-28T21:19:37;2.30;99.90
52435;DHT22;38354;52.892;6.148;2023-02-28T21:22:02;2.30;99.90
52435;DHT22;38354;52.892;6.148;2023-02-28T21:24:28;2.30;99.90
52435;DHT22;38354;52.892;6.148;2023-02-28T21:26:54;2.20;99.90
52435;DHT22;38354;52.892;6.148;2023-02-28T21:29:22;2.20;99.90
52435;DHT22;38354;52.892;6.148;2023-02-28T21:31:50;2.20;99.90
52435;DHT22;38354;52.892;6.148;2023-02-28T21:34:17;2.10;99.90
52435;DHT22;38354;52.892;6.148;2023-02-28T21:36:43;2.20;99.90
52435;DHT22;38354;52.892;6.148;2023-02-28T21:39:18;2.10;99.90
52435;DHT22;38354;52.892;6.148;2023-02-28T21:41:43;2.10;99.90
52435;DHT22;38354;52.892;6.148;2023-02-28T21:44:10;2.00;99.90
52435;DHT22;38354;52.892;6.148;2023-02-28T21:46:44;2.00;99.90
52435;DHT22;38354;52.892;6.148;2023-02-28T21:49:10;2.00;99.90
52435;DHT22;38354;52.892;6.148;2023-02-28T21:51:36;2.00;99.90